Terminal Aerodrome Forecast
Issued by NWS

Current Version | Previous Version | Text Only | Print | Product List | Glossary On
Versions: 1 2 3 4 5 6 7 8 9 10 11 12 13 14
000
FTUS43 KICT 280000 AAA
TAFCNU
TAF AMD
KCNU 280030Z 2801/2824 13006KT P6SM VCTS BKN100CB
      TEMPO 2801/2803 -TSRA
     FM280300 13006KT P6SM VCTS SCT100CB
     FM281600 18014G20KT P6SM SCT040 BKN100=

USA.gov is the U.S. government's official web portal to all federal, state and local government web resources and services.